Time;durP1;ratioP1;P1;durP2;ratioP2;P2;SDS_P1;SDS_P2;PMS_P1;PMS_P2;Temp;Humidity;BMP_temperature;BMP_pressure;BME280_temperature;BME280_humidity;BME280_pressure;Samples;Min_cycle;Max_cycle;Signal;HPM_P1;HPM_P2
2023/12/29 00:02:05;;;;;;;13.82;3.20;;;9.80;99.90;;;;;;5041254;28;20044;-80
2023/12/29 00:04:31;;;;;;;13.10;2.60;;;9.80;99.90;;;;;;5057897;28;20083;-80
2023/12/29 00:06:57;;;;;;;12.18;2.80;;;9.80;99.90;;;;;;5024743;28;20036;-80
2023/12/29 00:09:23;;;;;;;14.27;3.10;;;9.80;99.90;;;;;;5008209;28;20036;-80
2023/12/29 00:11:54;;;;;;;11.45;2.72;;;9.70;99.90;;;;;;5008442;28;20033;-80
2023/12/29 00:14:20;;;;;;;13.95;3.00;;;9.70;99.90;;;;;;5041039;28;20036;-80
2023/12/29 00:16:46;;;;;;;11.73;2.70;;;9.70;99.90;;;;;;5040916;28;20049;-80
2023/12/29 00:19:12;;;;;;;11.93;2.42;;;9.70;99.90;;;;;;5057395;28;20040;-79
2023/12/29 00:21:38;;;;;;;13.02;2.88;;;9.70;99.90;;;;;;5040984;28;20044;-79
2023/12/29 00:24:05;;;;;;;15.52;3.25;;;9.70;99.90;;;;;;5024923;28;20404;-80
2023/12/29 00:26:30;;;;;;;13.63;2.97;;;9.80;99.90;;;;;;5041122;28;20052;-80
2023/12/29 00:28:57;;;;;;;12.52;2.75;;;9.70;99.90;;;;;;5040949;28;20127;-81
2023/12/29 00:31:23;;;;;;;15.13;2.95;;;9.70;99.90;;;;;;5040848;28;20041;-81
2023/12/29 00:33:51;;;;;;;11.07;2.50;;;9.70;99.90;;;;;;5041079;28;20033;-80
2023/12/29 00:36:21;;;;;;;16.23;3.33;;;9.70;99.90;;;;;;5041203;28;20048;-74
2023/12/29 00:38:46;;;;;;;11.88;3.10;;;9.70;99.90;;;;;;5040806;28;20096;-74
2023/12/29 00:41:12;;;;;;;13.48;2.75;;;9.80;99.90;;;;;;5057170;28;20128;-74
2023/12/29 00:43:38;;;;;;;14.95;3.13;;;9.70;99.90;;;;;;5024200;28;20127;-74
2023/12/29 00:46:05;;;;;;;14.18;2.80;;;9.70;99.90;;;;;;5057123;28;20036;-75
2023/12/29 00:48:34;;;;;;;17.70;3.15;;;9.70;99.90;;;;;;5040431;28;20048;-74
2023/12/29 00:51:03;;;;;;;12.82;3.00;;;9.60;99.90;;;;;;5056688;28;20046;-74
2023/12/29 00:53:31;;;;;;;14.93;2.90;;;9.60;99.90;;;;;;5057206;28;20040;-74
2023/12/29 00:55:58;;;;;;;13.82;3.00;;;9.50;99.90;;;;;;5040245;28;20062;-74
2023/12/29 00:58:23;;;;;;;14.05;3.10;;;9.50;99.90;;;;;;5040485;28;20037;-74
2023/12/29 01:00:49;;;;;;;14.98;3.03;;;9.50;99.90;;;;;;5040152;28;20115;-74
2023/12/29 01:03:15;;;;;;;13.63;3.35;;;9.50;99.90;;;;;;5040353;28;20036;-74
2023/12/29 01:05:41;;;;;;;16.50;3.55;;;9.60;99.90;;;;;;5056466;28;20158;-74
2023/12/29 01:08:07;;;;;;;17.08;3.80;;;9.50;99.90;;;;;;5023947;28;20090;-74
2023/12/29 01:10:33;;;;;;;14.15;3.38;;;9.50;99.90;;;;;;5039673;28;20076;-73
2023/12/29 01:12:58;;;;;;;14.75;3.35;;;9.50;99.90;;;;;;5056370;28;20131;-73
2023/12/29 01:15:24;;;;;;;15.40;3.22;;;9.50;99.90;;;;;;5039817;28;20040;-73
2023/12/29 01:17:50;;;;;;;16.02;3.88;;;9.40;99.90;;;;;;5039581;28;20060;-73
2023/12/29 01:20:15;;;;;;;15.70;3.40;;;9.40;99.90;;;;;;5039897;28;20489;-73
2023/12/29 01:22:41;;;;;;;18.15;3.70;;;9.40;99.90;;;;;;5039572;28;20087;-73
2023/12/29 01:25:07;;;;;;;15.00;3.40;;;9.40;99.90;;;;;;5039640;28;20588;-73
2023/12/29 01:27:33;;;;;;;13.02;3.22;;;9.40;99.90;;;;;;5039856;28;20037;-74
2023/12/29 01:29:59;;;;;;;15.55;3.10;;;9.40;99.90;;;;;;5023369;28;20043;-73
2023/12/29 01:32:25;;;;;;;14.05;3.58;;;9.40;99.90;;;;;;5039477;28;20468;-73
2023/12/29 01:34:52;;;;;;;17.20;3.83;;;9.40;99.90;;;;;;5039746;28;20091;-74
2023/12/29 01:37:18;;;;;;;17.00;3.78;;;9.40;99.90;;;;;;5055943;28;20059;-73
2023/12/29 01:39:44;;;;;;;15.95;3.85;;;9.40;99.90;;;;;;5039366;28;20497;-74
2023/12/29 01:42:13;;;;;;;16.88;3.90;;;9.40;99.90;;;;;;5039455;28;20101;-74
2023/12/29 01:44:39;;;;;;;18.38;3.88;;;9.40;99.90;;;;;;5022897;28;20048;-73
2023/12/29 01:47:13;;;;;;;16.00;3.72;;;9.30;99.90;;;;;;5055938;28;20099;-80
2023/12/29 01:49:39;;;;;;;13.93;3.60;;;9.30;99.90;;;;;;5055618;28;20048;-80
2023/12/29 01:52:06;;;;;;;18.05;3.85;;;9.30;99.90;;;;;;5039118;28;20048;-80
2023/12/29 01:54:40;;;;;;;15.13;3.60;;;9.30;99.90;;;;;;5038962;28;20045;-80
2023/12/29 01:57:08;;;;;;;16.90;3.78;;;9.40;99.90;;;;;;5055460;28;20068;-80
2023/12/29 01:59:35;;;;;;;12.00;3.45;;;9.40;99.90;;;;;;5022915;28;20105;-80
2023/12/29 02:02:02;;;;;;;16.02;3.70;;;9.40;99.90;;;;;;5038864;28;20123;-80
2023/12/29 02:04:28;;;;;;;14.10;3.47;;;9.40;99.90;;;;;;5054681;28;20118;-80
2023/12/29 02:06:54;;;;;;;14.73;3.22;;;9.40;99.90;;;;;;5055359;28;20040;-78
2023/12/29 02:09:21;;;;;;;14.32;3.28;;;9.40;99.90;;;;;;5055754;28;20075;-80
2023/12/29 02:11:47;;;;;;;14.73;3.40;;;9.40;99.90;;;;;;5038536;28;20079;-80
2023/12/29 02:14:15;;;;;;;16.80;3.50;;;9.40;99.90;;;;;;5038874;28;20044;-80
2023/12/29 02:17:00;;;;;;;14.32;3.42;;;9.40;99.90;;;;;;5055208;28;20036;-81
2023/12/29 02:19:39;;;;;;;13.60;3.50;;;9.40;99.90;;;;;;5055221;28;20048;-80
2023/12/29 02:22:06;;;;;;;13.35;3.40;;;9.40;99.90;;;;;;5054997;28;20080;-80
2023/12/29 02:24:35;;;;;;;16.33;3.95;;;9.50;99.90;;;;;;5038453;28;20047;-80
2023/12/29 02:27:14;;;;;;;12.65;2.97;;;9.50;99.90;;;;;;5038792;28;20044;-80
2023/12/29 02:29:49;;;;;;;13.55;3.33;;;9.60;99.90;;;;;;5055078;28;20106;-80
2023/12/29 02:32:18;;;;;;;14.52;3.25;;;9.60;99.90;;;;;;5055312;28;20041;-80
2023/12/29 02:34:47;;;;;;;14.82;3.40;;;9.60;99.90;;;;;;5055195;28;20037;-79
2023/12/29 02:37:14;;;;;;;14.55;3.60;;;9.60;99.90;;;;;;5038427;28;20040;-79
2023/12/29 02:39:40;;;;;;;15.75;3.40;;;9.60;99.90;;;;;;5038449;28;20039;-80
2023/12/29 02:42:06;;;;;;;15.25;3.03;;;9.60;99.90;;;;;;5038462;28;20049;-80
2023/12/29 02:44:32;;;;;;;15.50;3.13;;;9.70;99.90;;;;;;5021670;28;20040;-80
2023/12/29 02:46:59;;;;;;;13.88;2.88;;;9.70;99.90;;;;;;5038167;28;20040;-80
2023/12/29 02:49:26;;;;;;;14.50;2.70;;;9.70;99.90;;;;;;5055102;28;20101;-81
2023/12/29 02:51:52;;;;;;;13.18;2.88;;;9.70;99.90;;;;;;5054699;28;20125;-80
2023/12/29 02:54:18;;;;;;;12.77;2.90;;;9.70;99.90;;;;;;5021804;28;20127;-80
2023/12/29 02:56:44;;;;;;;16.23;3.15;;;9.70;99.90;;;;;;5021696;28;20060;-79
2023/12/29 02:59:09;;;;;;;14.65;2.60;;;9.70;99.90;;;;;;5005533;28;20127;-79
2023/12/29 03:01:35;;;;;;;16.05;3.00;;;9.80;99.90;;;;;;5005421;28;20042;-79
2023/12/29 03:04:01;;;;;;;10.63;2.92;;;9.80;99.90;;;;;;5038115;28;20040;-79
2023/12/29 03:06:27;;;;;;;14.07;2.70;;;9.80;99.90;;;;;;5037996;28;20076;-80
2023/12/29 03:08:53;;;;;;;13.30;2.63;;;9.90;99.90;;;;;;5054679;28;20099;-79
2023/12/29 03:11:19;;;;;;;14.13;3.03;;;9.90;99.90;;;;;;5038239;28;20067;-80
2023/12/29 03:13:44;;;;;;;10.23;2.47;;;10.00;99.90;;;;;;5005673;28;20094;-79
2023/12/29 03:16:10;;;;;;;13.07;3.17;;;10.00;99.90;;;;;;5041870;28;20040;-79
2023/12/29 03:18:39;;;;;;;15.30;3.05;;;9.90;99.90;;;;;;5058502;28;20055;-79
2023/12/29 03:21:05;;;;;;;9.55;2.20;;;10.00;99.90;;;;;;5042298;28;20047;-79
2023/12/29 03:23:31;;;;;;;12.55;3.30;;;10.00;99.90;;;;;;5042207;28;20047;-80
2023/12/29 03:25:57;;;;;;;14.75;3.25;;;10.00;99.90;;;;;;5025944;28;20033;-80
2023/12/29 03:28:23;;;;;;;14.77;3.10;;;10.00;99.90;;;;;;5041948;28;20040;-80
2023/12/29 03:30:49;;;;;;;12.32;2.90;;;10.00;99.90;;;;;;5058300;28;20032;-79
2023/12/29 03:33:15;;;;;;;17.08;3.20;;;10.00;99.90;;;;;;5025237;28;20124;-80
2023/12/29 03:35:41;;;;;;;13.32;3.05;;;10.00;99.90;;;;;;5025208;28;20123;-79
2023/12/29 03:38:07;;;;;;;14.60;2.97;;;10.10;99.90;;;;;;5041457;28;20123;-79
2023/12/29 03:40:32;;;;;;;13.43;2.80;;;10.00;99.90;;;;;;5058421;28;20119;-80
2023/12/29 03:42:58;;;;;;;16.60;3.20;;;10.10;99.90;;;;;;5041787;28;20032;-80
2023/12/29 03:45:24;;;;;;;10.50;2.53;;;10.10;99.90;;;;;;5041587;28;20186;-80
2023/12/29 03:47:50;;;;;;;11.93;2.78;;;10.00;99.90;;;;;;5024936;28;20400;-79
2023/12/29 03:50:15;;;;;;;13.27;3.28;;;10.00;99.90;;;;;;5057986;28;20055;-80
2023/12/29 03:52:41;;;;;;;11.57;2.60;;;10.00;99.90;;;;;;5057849;28;20040;-79
2023/12/29 03:55:07;;;;;;;13.00;2.70;;;10.00;99.90;;;;;;5041149;28;20123;-80
2023/12/29 03:57:33;;;;;;;12.48;2.63;;;9.90;99.90;;;;;;5057878;28;20036;-80
2023/12/29 03:59:59;;;;;;;10.93;2.60;;;10.00;99.90;;;;;;5041051;28;20036;-79
2023/12/29 04:02:24;;;;;;;13.60;2.83;;;9.90;99.90;;;;;;5041118;28;20127;-80
2023/12/29 04:04:50;;;;;;;13.90;2.80;;;9.90;99.90;;;;;;5057733;28;20403;-80
2023/12/29 04:07:16;;;;;;;11.80;2.88;;;9.90;99.90;;;;;;5041305;28;20454;-79
2023/12/29 04:09:42;;;;;;;12.70;2.88;;;10.00;99.90;;;;;;5057632;28;20042;-79
2023/12/29 04:12:08;;;;;;;12.10;2.65;;;9.90;99.90;;;;;;5041044;28;20567;-79
2023/12/29 04:14:34;;;;;;;16.33;3.05;;;10.00;99.90;;;;;;5057541;28;20124;-80
2023/12/29 04:17:03;;;;;;;11.90;2.60;;;9.90;99.90;;;;;;5057780;28;20044;-80
2023/12/29 04:19:28;;;;;;;13.02;3.20;;;9.90;99.90;;;;;;5057339;28;20046;-80
2023/12/29 04:21:54;;;;;;;14.88;3.03;;;9.90;99.90;;;;;;5041069;28;20470;-80
2023/12/29 04:24:20;;;;;;;14.38;3.05;;;9.90;99.90;;;;;;5040736;28;20048;-79
2023/12/29 04:26:46;;;;;;;12.38;3.40;;;9.90;99.90;;;;;;5056522;28;20101;-79
2023/12/29 04:29:11;;;;;;;13.82;2.92;;;9.80;99.90;;;;;;5040750;28;20546;-79
2023/12/29 04:31:37;;;;;;;15.48;3.15;;;9.90;99.90;;;;;;5057062;28;20453;-80
2023/12/29 04:34:03;;;;;;;13.55;2.90;;;9.90;99.90;;;;;;5007672;28;20393;-79
2023/12/29 04:36:28;;;;;;;14.68;3.10;;;9.80;99.90;;;;;;5057015;28;20128;-79
2023/12/29 04:38:54;;;;;;;14.90;3.03;;;9.80;99.90;;;;;;5023875;28;20039;-79
2023/12/29 04:41:20;;;;;;;13.82;3.00;;;9.90;99.90;;;;;;5056990;28;20401;-79
2023/12/29 04:43:46;;;;;;;18.02;3.42;;;9.90;99.90;;;;;;5056937;28;20175;-79
2023/12/29 04:46:11;;;;;;;16.63;3.17;;;9.90;99.90;;;;;;5023918;28;20086;-79
2023/12/29 04:48:37;;;;;;;11.73;2.50;;;9.90;99.90;;;;;;5040214;28;20558;-79
2023/12/29 04:51:03;;;;;;;16.92;3.42;;;9.90;99.90;;;;;;5040395;28;20550;-79
2023/12/29 04:53:29;;;;;;;15.10;2.78;;;9.80;99.90;;;;;;5040317;28;20036;-80
2023/12/29 04:55:55;;;;;;;16.50;3.10;;;9.90;99.90;;;;;;5023768;28;20053;-80
2023/12/29 04:58:20;;;;;;;16.65;2.92;;;9.80;99.90;;;;;;5040077;28;20040;-79
2023/12/29 05:00:46;;;;;;;16.20;3.40;;;9.80;99.90;;;;;;5039939;28;20044;-80
2023/12/29 05:03:12;;;;;;;20.55;3.90;;;9.80;99.90;;;;;;5056837;28;20485;-80
2023/12/29 05:05:38;;;;;;;16.75;3.55;;;9.80;99.90;;;;;;5056527;28;20040;-80
2023/12/29 05:08:04;;;;;;;18.02;3.72;;;9.80;99.90;;;;;;5039932;28;20089;-80
2023/12/29 05:10:30;;;;;;;14.02;2.85;;;9.70;99.90;;;;;;5023670;28;20040;-77
2023/12/29 05:12:55;;;;;;;20.23;3.50;;;9.80;99.90;;;;;;5040032;28;20102;-80
2023/12/29 05:15:21;;;;;;;17.50;3.58;;;9.80;99.90;;;;;;5056576;28;20032;-80
2023/12/29 05:17:47;;;;;;;16.77;3.28;;;9.80;99.90;;;;;;5007248;28;20037;-80
2023/12/29 05:20:13;;;;;;;16.73;3.30;;;9.70;99.90;;;;;;5039704;28;20167;-80
2023/12/29 05:22:38;;;;;;;16.08;2.90;;;9.70;99.90;;;;;;5023372;28;20103;-79
2023/12/29 05:25:05;;;;;;;19.05;3.60;;;9.70;99.90;;;;;;5006790;28;20055;-80
2023/12/29 05:27:31;;;;;;;20.73;3.80;;;9.70;99.90;;;;;;5056327;28;20386;-79
2023/12/29 05:29:57;;;;;;;19.42;3.30;;;9.70;99.90;;;;;;5023499;28;20503;-80
2023/12/29 05:32:23;;;;;;;15.32;3.17;;;9.60;99.90;;;;;;5006709;28;20044;-80
2023/12/29 05:34:49;;;;;;;16.15;3.22;;;9.70;99.90;;;;;;5039695;28;20047;-79
2023/12/29 05:37:14;;;;;;;20.08;3.40;;;9.70;99.90;;;;;;5055554;28;20044;-80
2023/12/29 05:39:43;;;;;;;20.40;3.60;;;9.70;99.90;;;;;;5038781;28;20110;-80
2023/12/29 05:42:09;;;;;;;17.27;3.33;;;9.70;99.90;;;;;;5022874;28;20121;-80
2023/12/29 05:44:38;;;;;;;18.05;3.30;;;9.60;99.90;;;;;;5039295;28;20040;-79
2023/12/29 05:47:07;;;;;;;18.05;3.65;;;9.70;99.90;;;;;;5022706;28;20051;-80
2023/12/29 05:49:37;;;;;;;19.55;3.40;;;9.60;99.90;;;;;;5055692;28;20043;-80
2023/12/29 05:52:04;;;;;;;17.00;3.53;;;9.60;99.90;;;;;;5039841;28;20041;-80
2023/12/29 05:54:30;;;;;;;20.48;4.00;;;9.70;99.90;;;;;;5022744;28;20038;-79
2023/12/29 05:56:56;;;;;;;19.88;3.75;;;9.70;99.90;;;;;;5038912;28;20061;-80
2023/12/29 05:59:21;;;;;;;18.25;3.67;;;9.70;99.90;;;;;;5039001;28;20036;-79
2023/12/29 06:01:47;;;;;;;21.00;3.70;;;9.60;99.90;;;;;;5038874;28;20067;-80
2023/12/29 06:04:13;;;;;;;21.05;4.35;;;9.60;99.90;;;;;;5038834;28;20089;-79
2023/12/29 06:06:41;;;;;;;22.90;4.28;;;9.60;99.90;;;;;;5038687;28;20181;-79
2023/12/29 06:09:08;;;;;;;17.05;3.72;;;9.70;99.90;;;;;;5039385;28;20049;-80
2023/12/29 06:11:34;;;;;;;18.23;3.72;;;9.60;99.90;;;;;;5055520;28;20124;-80
2023/12/29 06:14:00;;;;;;;20.17;3.63;;;9.60;99.90;;;;;;5055116;28;20186;-79
2023/12/29 06:16:26;;;;;;;18.75;3.88;;;9.60;99.90;;;;;;5055202;28;20051;-79
2023/12/29 06:18:53;;;;;;;22.02;4.13;;;9.60;99.90;;;;;;5055068;28;20094;-79
2023/12/29 06:21:19;;;;;;;23.13;4.35;;;9.60;99.90;;;;;;5038878;28;20032;-79
2023/12/29 06:23:45;;;;;;;21.85;3.95;;;9.60;99.90;;;;;;5055189;28;20127;-79
2023/12/29 06:26:18;;;;;;;26.38;4.63;;;9.60;99.90;;;;;;5055371;28;20132;-74
2023/12/29 06:28:45;;;;;;;21.35;4.03;;;9.70;99.90;;;;;;5038585;28;20121;-80
2023/12/29 06:31:11;;;;;;;21.35;3.85;;;9.70;99.90;;;;;;5038512;28;20040;-80
2023/12/29 06:33:40;;;;;;;21.92;4.10;;;9.70;99.90;;;;;;5054938;28;20076;-80
2023/12/29 06:36:06;;;;;;;26.60;4.40;;;9.70;99.90;;;;;;5054864;28;20087;-79
2023/12/29 06:38:33;;;;;;;26.38;4.50;;;9.70;99.90;;;;;;5038359;28;20032;-79
2023/12/29 06:41:04;;;;;;;21.27;3.85;;;9.80;99.90;;;;;;5055176;28;20047;-80
2023/12/29 06:43:30;;;;;;;28.17;4.75;;;9.80;99.90;;;;;;5055028;28;20114;-80
2023/12/29 06:45:56;;;;;;;21.75;4.15;;;9.70;99.90;;;;;;5021960;28;20044;-80
2023/12/29 06:48:22;;;;;;;26.83;4.82;;;9.70;99.90;;;;;;5038392;28;20496;-80
2023/12/29 06:50:48;;;;;;;25.50;4.45;;;9.60;99.90;;;;;;5038020;28;20062;-80
2023/12/29 06:53:14;;;;;;;27.48;4.53;;;9.60;99.90;;;;;;5038204;28;20127;-79
2023/12/29 06:55:40;;;;;;;22.33;4.18;;;9.60;99.90;;;;;;5038130;28;20060;-80
2023/12/29 06:58:06;;;;;;;29.15;4.78;;;9.60;99.90;;;;;;5054721;28;20053;-80
2023/12/29 07:00:31;;;;;;;23.50;4.45;;;9.50;99.90;;;;;;5054895;28;20051;-79
2023/12/29 07:02:57;;;;;;;26.63;4.57;;;9.50;99.90;;;;;;5021639;28;20041;-80
2023/12/29 07:05:23;;;;;;;22.85;4.30;;;9.50;99.90;;;;;;5037996;28;20583;-79
2023/12/29 07:07:49;;;;;;;21.33;4.00;;;9.50;99.90;;;;;;5038092;28;20052;-80
2023/12/29 07:10:15;;;;;;;26.65;4.63;;;9.50;99.90;;;;;;5038090;28;20040;-80
2023/12/29 07:12:41;;;;;;;22.63;4.43;;;9.50;99.90;;;;;;5054339;28;20047;-80
2023/12/29 07:15:07;;;;;;;25.00;5.07;;;9.40;99.90;;;;;;5054743;28;20059;-80
2023/12/29 07:17:32;;;;;;;21.73;4.00;;;9.40;99.90;;;;;;5021792;28;20477;-81
2023/12/29 07:20:00;;;;;;;20.05;4.25;;;9.40;99.90;;;;;;5054486;28;20048;-80
2023/12/29 07:22:26;;;;;;;22.80;4.60;;;9.40;99.90;;;;;;5038148;28;20597;-80
2023/12/29 07:24:51;;;;;;;22.02;4.60;;;9.40;99.90;;;;;;5037944;28;20056;-80
2023/12/29 07:27:17;;;;;;;18.83;3.72;;;9.30;99.90;;;;;;5037821;28;20446;-80
2023/12/29 07:29:43;;;;;;;21.00;4.03;;;9.40;99.90;;;;;;5054642;28;20131;-80
2023/12/29 07:32:09;;;;;;;16.75;3.45;;;9.40;99.90;;;;;;5054419;28;20094;-79
2023/12/29 07:34:35;;;;;;;26.58;4.68;;;9.50;99.90;;;;;;5037836;28;20036;-79
2023/12/29 07:37:00;;;;;;;27.63;4.63;;;9.40;99.90;;;;;;5054737;28;20076;-80
2023/12/29 07:39:26;;;;;;;26.80;4.50;;;9.30;99.90;;;;;;5021381;28;20045;-80
2023/12/29 07:41:53;;;;;;;31.83;5.30;;;9.30;99.90;;;;;;5054499;28;20041;-79
2023/12/29 07:44:19;;;;;;;29.85;4.70;;;9.20;99.90;;;;;;5054561;28;20044;-79
2023/12/29 07:46:45;;;;;;;25.70;4.53;;;9.20;99.90;;;;;;5054449;28;20045;-80
2023/12/29 07:49:11;;;;;;;27.13;4.80;;;9.10;99.90;;;;;;5021515;28;20048;-80
2023/12/29 07:51:45;;;;;;;26.95;4.95;;;9.10;99.90;;;;;;5054061;28;20044;-79
2023/12/29 07:54:11;;;;;;;25.33;5.03;;;9.10;99.90;;;;;;5037866;28;20694;-80
2023/12/29 07:56:37;;;;;;;21.63;4.10;;;9.10;99.90;;;;;;5054008;28;20135;-79
2023/12/29 07:59:04;;;;;;;25.58;4.30;;;9.20;99.90;;;;;;5021513;28;20102;-79
2023/12/29 08:01:29;;;;;;;26.10;5.18;;;9.20;99.90;;;;;;5038744;28;20048;-79
2023/12/29 08:03:55;;;;;;;27.10;4.55;;;9.20;99.90;;;;;;5057831;28;20493;-79
2023/12/29 08:06:21;;;;;;;22.63;4.57;;;9.20;99.90;;;;;;5057796;28;20123;-79
2023/12/29 08:08:50;;;;;;;24.02;4.63;;;9.30;99.90;;;;;;5057636;28;20051;-80
2023/12/29 08:11:16;;;;;;;21.35;4.55;;;9.30;99.90;;;;;;5057802;28;20488;-80
2023/12/29 08:13:48;;;;;;;21.38;4.65;;;9.20;99.90;;;;;;5040866;28;20032;-80
2023/12/29 08:16:14;;;;;;;20.48;4.45;;;9.30;99.90;;;;;;5057750;28;20040;-80
2023/12/29 08:18:40;;;;;;;20.55;4.70;;;9.30;99.90;;;;;;5041164;28;20036;-80
2023/12/29 08:21:06;;;;;;;26.13;4.32;;;9.30;99.90;;;;;;5057449;28;20106;-79
2023/12/29 08:23:31;;;;;;;24.10;5.88;;;9.30;99.90;;;;;;5040930;28;20507;-80
2023/12/29 08:26:00;;;;;;;23.90;5.03;;;9.30;99.90;;;;;;5040998;28;20036;-80
2023/12/29 08:28:26;;;;;;;21.25;4.18;;;9.40;99.90;;;;;;5057499;28;20047;-79
2023/12/29 08:30:52;;;;;;;20.45;4.32;;;9.40;99.90;;;;;;5040884;28;20040;-80
2023/12/29 08:33:18;;;;;;;20.20;4.03;;;9.40;99.90;;;;;;5040439;28;20040;-80
2023/12/29 08:35:45;;;;;;;21.98;4.25;;;9.50;99.90;;;;;;5040499;28;20068;-80
2023/12/29 08:38:11;;;;;;;22.15;3.88;;;9.50;99.90;;;;;;5041111;28;20177;-80
2023/12/29 08:40:37;;;;;;;17.55;3.67;;;9.50;99.90;;;;;;5040762;28;20047;-80
2023/12/29 08:43:03;;;;;;;17.73;3.75;;;9.50;99.90;;;;;;5040545;28;20040;-80
2023/12/29 08:45:29;;;;;;;28.45;4.95;;;9.50;99.90;;;;;;5040369;28;20093;-80
2023/12/29 08:47:55;;;;;;;21.88;4.15;;;9.50;99.90;;;;;;5057004;28;20123;-73
2023/12/29 08:50:21;;;;;;;23.52;4.63;;;9.50;99.90;;;;;;5040275;28;20040;-73
2023/12/29 08:52:47;;;;;;;24.88;4.80;;;9.50;99.90;;;;;;5023943;28;20044;-73
2023/12/29 08:55:13;;;;;;;23.85;4.00;;;9.50;99.90;;;;;;5056599;28;20508;-72
2023/12/29 08:57:39;;;;;;;20.77;4.22;;;9.40;99.90;;;;;;5056498;28;20544;-73
2023/12/29 09:00:05;;;;;;;11.82;2.17;;;9.40;99.90;;;;;;5040137;28;20051;-72
2023/12/29 09:02:31;;;;;;;15.85;3.13;;;9.50;99.90;;;;;;5056825;28;20508;-73
2023/12/29 09:04:57;;;;;;;13.55;3.00;;;9.30;99.90;;;;;;5023417;28;20048;-74
2023/12/29 09:07:23;;;;;;;17.63;3.60;;;9.30;99.90;;;;;;5056503;28;20045;-73
2023/12/29 09:09:48;;;;;;;19.75;3.97;;;9.30;99.90;;;;;;5056700;28;20039;-73
2023/12/29 09:12:14;;;;;;;15.90;3.63;;;9.20;99.90;;;;;;5039634;28;20036;-74
2023/12/29 09:14:40;;;;;;;16.80;3.58;;;9.30;99.90;;;;;;5056155;28;20036;-74
2023/12/29 09:17:06;;;;;;;20.15;3.75;;;9.30;99.90;;;;;;5039624;28;20044;-74
2023/12/29 09:19:31;;;;;;;16.77;3.47;;;9.40;99.90;;;;;;5039564;28;20037;-73
2023/12/29 09:21:57;;;;;;;19.42;4.00;;;9.50;99.90;;;;;;5039769;28;20032;-74
2023/12/29 09:24:23;;;;;;;17.70;3.83;;;9.50;99.90;;;;;;5055945;28;20040;-74
2023/12/29 09:26:50;;;;;;;15.32;3.60;;;9.60;99.90;;;;;;5039883;28;20048;-73
2023/12/29 09:29:16;;;;;;;15.43;3.55;;;9.60;99.90;;;;;;5039801;28;20086;-73
2023/12/29 09:31:42;;;;;;;16.63;3.13;;;9.70;99.90;;;;;;5039600;28;20147;-73
2023/12/29 09:34:08;;;;;;;18.15;3.47;;;9.70;99.90;;;;;;5006986;28;20040;-74
2023/12/29 09:36:34;;;;;;;16.52;3.60;;;9.80;99.90;;;;;;5039883;28;20401;-73
2023/12/29 09:39:00;;;;;;;16.40;3.65;;;9.70;99.90;;;;;;5039347;28;20036;-73
2023/12/29 09:41:28;;;;;;;16.67;3.38;;;9.80;99.90;;;;;;5039619;28;20052;-74
2023/12/29 09:43:53;;;;;;;14.02;3.50;;;9.70;99.90;;;;;;5055855;28;20037;-73
2023/12/29 09:46:21;;;;;;;15.07;3.40;;;9.80;99.90;;;;;;5039460;28;20472;-73
2023/12/29 09:48:48;;;;;;;12.23;2.88;;;9.80;99.90;;;;;;5039075;28;20079;-73
2023/12/29 09:51:22;;;;;;;14.63;2.90;;;9.80;99.90;;;;;;5039330;28;20102;-72
2023/12/29 09:53:48;;;;;;;13.23;2.80;;;9.70;99.90;;;;;;5023403;28;20404;-73
2023/12/29 09:56:14;;;;;;;16.88;3.15;;;9.80;99.90;;;;;;5055639;28;20128;-74
2023/12/29 09:58:41;;;;;;;14.90;3.10;;;9.80;99.90;;;;;;5039284;28;20040;-79
2023/12/29 10:01:07;;;;;;;15.70;3.28;;;9.80;99.90;;;;;;5055513;28;20094;-79
2023/12/29 10:03:33;;;;;;;13.88;3.17;;;9.80;99.90;;;;;;5055487;28;20414;-79
2023/12/29 10:06:08;;;;;;;16.35;3.15;;;9.80;99.90;;;;;;5055818;28;20055;-79
2023/12/29 10:08:34;;;;;;;14.43;3.17;;;9.90;99.90;;;;;;5055580;28;20036;-79
2023/12/29 10:11:01;;;;;;;10.60;2.60;;;9.90;99.90;;;;;;5038837;28;20534;-79
2023/12/29 10:13:30;;;;;;;12.48;2.83;;;9.90;99.90;;;;;;5055188;28;20178;-79
2023/12/29 10:16:12;;;;;;;15.55;2.90;;;9.90;99.90;;;;;;5055597;28;20071;-79
2023/12/29 10:18:46;;;;;;;13.80;2.88;;;9.80;99.90;;;;;;5055573;28;20397;-79
2023/12/29 10:21:21;;;;;;;10.43;2.30;;;9.80;99.90;;;;;;5055335;28;20040;-79
2023/12/29 10:24:03;;;;;;;12.65;2.90;;;9.80;99.90;;;;;;5038002;28;20048;-79
2023/12/29 10:26:29;;;;;;;9.75;2.30;;;9.80;99.90;;;;;;5055078;28;20238;-79
2023/12/29 10:28:56;;;;;;;11.02;2.20;;;9.80;99.90;;;;;;5055097;28;20045;-79
2023/12/29 10:31:23;;;;;;;10.95;2.30;;;9.70;99.90;;;;;;5055355;28;20396;-79
2023/12/29 10:33:51;;;;;;;11.07;2.22;;;9.70;99.90;;;;;;5055007;28;20043;-79
2023/12/29 10:36:17;;;;;;;8.80;2.35;;;9.70;99.90;;;;;;5022341;28;20046;-79
2023/12/29 10:38:45;;;;;;;10.55;2.20;;;9.60;99.90;;;;;;5055192;28;20055;-79
2023/12/29 10:41:19;;;;;;;10.25;2.30;;;9.60;99.90;;;;;;5038434;28;20032;-79
2023/12/29 10:43:54;;;;;;;11.52;2.20;;;9.50;99.90;;;;;;5038669;28;20082;-79
2023/12/29 10:46:20;;;;;;;8.30;1.98;;;9.40;99.90;;;;;;5055067;28;20526;-81
2023/12/29 10:48:46;;;;;;;6.57;1.75;;;9.40;99.90;;;;;;5054781;28;20040;-79
2023/12/29 10:51:12;;;;;;;6.35;1.40;;;9.30;99.90;;;;;;5005531;28;20098;-79
2023/12/29 10:53:38;;;;;;;4.78;1.35;;;9.30;99.90;;;;;;5038129;28;20466;-79
2023/12/29 10:56:10;;;;;;;5.93;1.30;;;9.10;99.90;;;;;;5021834;28;20090;-79
2023/12/29 10:58:37;;;;;;;5.80;1.20;;;9.10;99.90;;;;;;5054936;28;20040;-79
2023/12/29 11:01:15;;;;;;;5.82;1.40;;;9.10;99.90;;;;;;5054782;28;20044;-79
2023/12/29 11:03:41;;;;;;;6.82;1.60;;;9.10;99.90;;;;;;5038307;28;20041;-79
2023/12/29 11:06:07;;;;;;;7.95;1.63;;;9.10;99.90;;;;;;5054547;28;20040;-79
2023/12/29 11:08:36;;;;;;;7.75;1.63;;;9.00;99.90;;;;;;5038097;28;20033;-80
2023/12/29 11:11:04;;;;;;;8.35;1.90;;;9.00;99.90;;;;;;5055128;28;20037;-79
2023/12/29 11:13:30;;;;;;;8.48;1.42;;;9.00;99.90;;;;;;5054696;28;20044;-79
2023/12/29 11:15:57;;;;;;;8.75;1.85;;;9.10;99.90;;;;;;5038246;28;20127;-80
2023/12/29 11:18:23;;;;;;;9.05;1.77;;;9.10;99.90;;;;;;5021648;28;20047;-80
2023/12/29 11:20:49;;;;;;;9.90;2.03;;;9.20;99.90;;;;;;5054681;28;20040;-78
2023/12/29 11:23:16;;;;;;;8.80;1.63;;;9.30;99.90;;;;;;5054695;28;20059;-80
2023/12/29 11:25:48;;;;;;;9.88;1.75;;;9.30;99.90;;;;;;5037962;28;20047;-81
2023/12/29 11:28:14;;;;;;;;;;;9.40;99.90;;;;;;5038656;28;20044;-80
2023/12/29 11:30:40;;;;;;;10.55;1.65;;;9.40;99.90;;;;;;5071566;28;19916;-80
2023/12/29 11:33:23;;;;;;;9.98;2.25;;;9.40;99.90;;;;;;5037821;28;20504;-79
2023/12/29 11:36:03;;;;;;;11.40;2.00;;;9.50;99.90;;;;;;5054500;28;20041;-78
2023/12/29 11:38:33;;;;;;;13.82;2.40;;;9.50;99.90;;;;;;5042176;28;20033;-79
2023/12/29 11:41:47;;;;;;;15.48;2.42;;;9.50;99.90;;;;;;5058536;28;20079;-79
2023/12/29 11:44:24;;;;;;;14.68;2.70;;;9.50;99.90;;;;;;5033783;28;20141;-80
2023/12/29 11:46:49;;;;;;;13.52;2.58;;;9.50;99.90;;;;;;5058621;28;20127;-81
2023/12/29 11:49:15;;;;;;;13.35;3.10;;;9.60;99.90;;;;;;5058052;28;20128;-81
2023/12/29 11:51:51;;;;;;;13.20;2.83;;;9.60;99.90;;;;;;5041647;28;20050;-80
2023/12/29 11:54:27;;;;;;;13.38;2.75;;;9.60;99.90;;;;;;5042562;28;20084;-81
2023/12/29 11:56:54;;;;;;;16.08;3.10;;;9.70;99.90;;;;;;5041220;28;20049;-80
2023/12/29 11:59:24;;;;;;;12.30;2.53;;;9.70;99.90;;;;;;5058347;28;20086;-81
2023/12/29 12:01:52;;;;;;;11.18;2.40;;;9.70;99.90;;;;;;5057964;28;20044;-80
2023/12/29 12:04:40;;;;;;;13.27;2.50;;;9.60;99.90;;;;;;5041347;28;20048;-81
2023/12/29 12:07:21;;;;;;;11.40;2.17;;;9.70;99.90;;;;;;5058124;28;20067;-79
2023/12/29 12:09:52;;;;;;;10.77;2.38;;;9.70;99.90;;;;;;5057735;28;20040;-77
2023/12/29 12:12:41;;;;;;;16.15;3.10;;;9.70;99.90;;;;;;5041097;28;20489;-79
2023/12/29 12:15:29;;;;;;;15.55;2.88;;;9.70;99.90;;;;;;5057613;28;20091;-78
2023/12/29 12:18:09;;;;;;;14.07;3.00;;;9.70;99.90;;;;;;5057457;28;20033;-70
2023/12/29 12:20:36;;;;;;;14.15;3.00;;;9.70;99.90;;;;;;5041659;28;20413;-70
2023/12/29 12:23:17;;;;;;;18.67;3.35;;;9.80;99.90;;;;;;5041054;28;20101;-70
2023/12/29 12:25:45;;;;;;;14.55;2.72;;;9.80;99.90;;;;;;5057711;28;20062;-71
2023/12/29 12:28:14;;;;;;;17.55;3.13;;;9.80;99.90;;;;;;5075528;28;20396;-70
2023/12/29 12:30:40;;;;;;;17.67;3.10;;;9.90;99.90;;;;;;5040853;28;20043;-70
2023/12/29 12:33:06;;;;;;;17.10;3.03;;;9.90;99.90;;;;;;5040595;28;20053;-72
2023/12/29 12:35:32;;;;;;;15.68;3.13;;;9.80;99.90;;;;;;5040435;28;20048;-70
2023/12/29 12:38:12;;;;;;;17.15;3.10;;;9.90;99.90;;;;;;5057114;28;20055;-70
2023/12/29 12:40:40;;;;;;;14.38;2.55;;;9.90;99.90;;;;;;5040593;28;20120;-70
2023/12/29 12:43:07;;;;;;;15.70;2.95;;;9.90;99.90;;;;;;5056928;28;20055;-70
2023/12/29 12:45:59;;;;;;;12.43;2.53;;;10.00;99.90;;;;;;5040369;28;20040;-71
2023/12/29 12:48:40;;;;;;;13.38;2.78;;;10.00;99.90;;;;;;5051687;28;20048;-70
2023/12/29 12:51:06;;;;;;;14.82;2.92;;;10.00;99.90;;;;;;5057254;28;20413;-71